createdAt,value
2022-08-09T00:00:07.976Z,49.43
2022-08-09T00:02:35.180Z,48.21
2022-08-09T00:06:15.933Z,48.54
2022-08-09T00:07:49.511Z,48.58
2022-08-09T00:10:24.363Z,47.84
2022-08-09T00:12:52.989Z,48.46
2022-08-09T00:15:35.294Z,48.05
2022-08-09T00:18:11.410Z,46.36
2022-08-09T00:20:42.516Z,47.24
2022-08-09T00:23:54.986Z,47.80
2022-08-09T00:26:05.390Z,48.04
2022-08-09T00:28:32.304Z,48.06
2022-08-09T00:31:01.710Z,48.49
2022-08-09T00:33:50.948Z,49.08
2022-08-09T00:36:18.915Z,49.01
2022-08-09T00:38:46.025Z,48.80
2022-08-09T00:44:18.734Z,48.60
2022-08-09T00:44:19.305Z,48.58
2022-08-09T00:46:57.730Z,48.42
2022-08-09T00:49:32.173Z,48.11
2022-08-09T00:52:02.193Z,48.09
2022-08-09T00:54:35.955Z,47.91
2022-08-09T00:57:08.779Z,48.13
2022-08-09T00:59:41.540Z,47.83
2022-08-09T01:02:15.977Z,47.58
2022-08-09T01:04:50.159Z,47.49
2022-08-09T01:07:38.126Z,47.93
2022-08-09T01:10:09.198Z,48.07
2022-08-09T01:12:35.805Z,48.25
2022-08-09T01:15:10.073Z,48.18
2022-08-09T01:17:56.740Z,48.14
2022-08-09T01:20:40.002Z,48.32
2022-08-09T01:24:03.677Z,48.57
2022-08-09T01:26:08.573Z,48.81
2022-08-09T01:28:36.155Z,49.02
2022-08-09T01:31:06.165Z,48.83
2022-08-09T01:33:37.028Z,48.95
2022-08-09T01:36:06.085Z,49.08
2022-08-09T01:38:40.032Z,49.35
2022-08-09T01:41:09.545Z,49.39
2022-08-09T01:43:51.137Z,49.32
2022-08-09T01:46:26.884Z,49.87
2022-08-09T01:48:55.662Z,49.99
2022-08-09T01:51:23.734Z,50.16
2022-08-09T01:53:54.801Z,50.48
2022-08-09T01:56:25.492Z,50.93
2022-08-09T01:58:53.197Z,50.98
2022-08-09T02:01:58.588Z,52.12
2022-08-09T02:04:09.985Z,52.58
2022-08-09T02:06:58.995Z,50.90
2022-08-09T02:09:42.516Z,49.93
2022-08-09T02:12:11.101Z,49.51
2022-08-09T02:14:47.350Z,49.74
2022-08-09T02:17:59.776Z,50.25
2022-08-09T02:20:05.786Z,50.12
2022-08-09T02:22:36.176Z,50.25
2022-08-09T02:25:04.602Z,50.24
2022-08-09T02:27:57.622Z,50.38
2022-08-09T02:30:21.933Z,50.73
2022-08-09T02:32:53.373Z,50.96
2022-08-09T02:35:46.344Z,50.48
2022-08-09T02:38:22.064Z,50.63
2022-08-09T02:40:58.540Z,50.76
2022-08-09T02:43:28.803Z,50.86
2022-08-09T02:45:56.935Z,50.75
2022-08-09T02:48:30.837Z,50.22
2022-08-09T02:50:59.561Z,49.80
2022-08-09T02:53:34.357Z,50.49
2022-08-09T02:56:02.409Z,50.08
2022-08-09T02:58:35.388Z,49.76
2022-08-09T03:01:06.177Z,43.79
2022-08-09T03:04:12.913Z,42.41
2022-08-09T03:06:22.932Z,42.70
2022-08-09T03:08:52.382Z,42.76
2022-08-09T03:11:30.084Z,41.81
2022-08-09T03:14:09.962Z,42.85
2022-08-09T03:16:41.701Z,42.57
2022-08-09T03:19:14.454Z,42.65
2022-08-09T03:21:59.436Z,42.99
2022-08-09T03:24:31.623Z,43.25
2022-08-09T03:27:10.647Z,42.74
2022-08-09T03:29:58.167Z,42.61
2022-08-09T03:32:26.307Z,42.92
2022-08-09T03:34:54.245Z,43.32
2022-08-09T03:37:55.916Z,43.53
2022-08-09T03:40:13.246Z,43.53
2022-08-09T03:42:40.084Z,43.81
2022-08-09T03:45:10.260Z,43.76
2022-08-09T03:47:39.883Z,43.71
2022-08-09T03:50:10.041Z,43.75
2022-08-09T03:52:38.900Z,44.63
2022-08-09T03:55:07.581Z,45.98
2022-08-09T03:57:44.765Z,47.42
2022-08-09T04:00:23.445Z,48.88
2022-08-09T04:02:52.672Z,50.14
2022-08-09T04:05:27.595Z,50.16
2022-08-09T04:07:57.341Z,50.14
2022-08-09T04:10:29.146Z,50.46
2022-08-09T04:12:56.557Z,50.67
2022-08-09T04:15:38.804Z,50.56
2022-08-09T04:18:16.749Z,50.22
2022-08-09T04:20:47.154Z,50.73
2022-08-09T04:23:16.889Z,51.03
2022-08-09T04:25:44.101Z,51.06
2022-08-09T04:28:10.734Z,51.56
2022-08-09T04:30:39.149Z,51.53
2022-08-09T04:33:11.552Z,51.95
2022-08-09T04:35:42.237Z,52.41
2022-08-09T04:38:09.213Z,52.44
2022-08-09T04:40:56.277Z,52.82
2022-08-09T04:43:25.159Z,53.05
2022-08-09T04:45:54.022Z,53.01
2022-08-09T04:48:21.019Z,53.03
2022-08-09T04:50:50.340Z,52.72
2022-08-09T04:53:16.986Z,52.97
2022-08-09T04:55:58.993Z,52.68
2022-08-09T04:58:31.665Z,52.50
2022-08-09T05:01:00.226Z,52.71
2022-08-09T05:03:41.013Z,52.80
2022-08-09T05:06:25.863Z,52.42
2022-08-09T05:09:00.667Z,50.85
2022-08-09T05:11:30.451Z,46.37
2022-08-09T05:13:59.384Z,46.14
2022-08-09T05:16:28.493Z,46.68
2022-08-09T05:18:59.988Z,48.24
2022-08-09T05:21:30.235Z,50.48
2022-08-09T05:24:05.412Z,50.62
2022-08-09T05:26:36.666Z,50.05
2022-08-09T05:29:17.499Z,50.90
2022-08-09T05:31:56.055Z,50.35
2022-08-09T05:34:30.176Z,50.65
2022-08-09T05:37:01.459Z,50.86
2022-08-09T05:39:35.646Z,50.38
2022-08-09T05:42:04.874Z,50.54
2022-08-09T05:44:34.867Z,50.33
2022-08-09T05:47:05.692Z,50.73
2022-08-09T05:50:23.279Z,50.45
2022-08-09T05:52:19.720Z,50.17
2022-08-09T05:54:46.450Z,49.98
2022-08-09T05:57:17.531Z,49.54
2022-08-09T05:59:45.925Z,47.77
2022-08-09T06:02:16.979Z,47.94
2022-08-09T06:04:46.070Z,46.66
2022-08-09T06:07:21.506Z,47.55
2022-08-09T06:09:54.562Z,46.58
2022-08-09T06:12:29.611Z,48.05
2022-08-09T06:15:00.909Z,48.07
2022-08-09T06:17:40.406Z,47.26
2022-08-09T06:20:08.285Z,46.59
2022-08-09T06:22:35.434Z,46.34
2022-08-09T06:25:02.333Z,45.53
2022-08-09T06:27:42.136Z,44.83
2022-08-09T06:30:10.185Z,44.82
2022-08-09T06:32:59.733Z,44.60
2022-08-09T06:35:56.002Z,44.52
2022-08-09T06:38:10.297Z,44.24
2022-08-09T06:40:38.201Z,44.10
2022-08-09T06:43:10.596Z,44.13
2022-08-09T06:46:06.493Z,43.46
2022-08-09T06:48:26.163Z,43.62
2022-08-09T06:50:58.442Z,43.67
2022-08-09T06:53:25.124Z,43.60
2022-08-09T06:55:52.310Z,43.43
2022-08-09T07:00:46.446Z,43.75
2022-08-09T07:01:06.026Z,44.86
2022-08-09T07:03:39.510Z,45.22
2022-08-09T07:06:18.311Z,45.94
2022-08-09T07:08:46.691Z,47.91
2022-08-09T07:11:17.565Z,49.00
2022-08-09T07:14:04.880Z,50.64
2022-08-09T07:16:42.476Z,51.86
2022-08-09T07:19:23.122Z,51.57
2022-08-09T07:21:57.586Z,50.86
2022-08-09T07:24:31.825Z,50.12
2022-08-09T07:27:00.328Z,49.56
2022-08-09T07:29:37.739Z,48.94
2022-08-09T07:32:05.036Z,49.33
2022-08-09T07:34:32.451Z,49.18
2022-08-09T07:37:02.495Z,49.48
2022-08-09T07:39:41.291Z,48.96
2022-08-09T07:42:09.319Z,50.91
2022-08-09T07:44:50.946Z,51.75
2022-08-09T07:47:21.038Z,51.73
2022-08-09T07:49:52.310Z,51.46
2022-08-09T07:52:32.915Z,52.17
2022-08-09T07:55:00.391Z,51.71
2022-08-09T07:57:33.931Z,51.53
2022-08-09T08:00:03.377Z,49.43
2022-08-09T08:02:30.711Z,48.49
2022-08-09T08:04:57.469Z,48.92
2022-08-09T08:08:44.414Z,47.46
2022-08-09T08:10:12.474Z,47.55
2022-08-09T08:12:43.611Z,47.11
2022-08-09T08:15:13.800Z,47.68
2022-08-09T08:17:53.461Z,47.63
2022-08-09T08:20:29.402Z,47.17
2022-08-09T08:23:06.245Z,47.17
2022-08-09T08:25:49.835Z,46.73
2022-08-09T08:28:18.248Z,47.83
2022-08-09T08:30:52.667Z,48.21
2022-08-09T08:33:24.527Z,48.01
2022-08-09T08:35:58.707Z,48.00
2022-08-09T08:38:28.088Z,47.12
2022-08-09T08:40:55.897Z,47.38
2022-08-09T08:43:23.940Z,48.28
2022-08-09T08:46:00.093Z,50.07
2022-08-09T08:48:31.519Z,51.58
2022-08-09T08:50:58.813Z,51.64
2022-08-09T08:53:32.133Z,53.56
2022-08-09T08:56:04.384Z,54.41
2022-08-09T08:58:33.026Z,54.59
2022-08-09T09:01:08.635Z,55.30
2022-08-09T09:03:37.907Z,54.21
2022-08-09T09:06:05.857Z,54.59
2022-08-09T09:08:38.134Z,54.41
2022-08-09T09:11:08.270Z,53.46
2022-08-09T09:13:47.294Z,53.46
2022-08-09T09:16:30.801Z,53.33
2022-08-09T09:19:22.663Z,54.42
2022-08-09T09:22:05.172Z,54.30
2022-08-09T09:24:43.353Z,54.76
2022-08-09T09:27:11.784Z,55.51
2022-08-09T09:30:14.541Z,56.01
2022-08-09T09:33:16.984Z,58.02
2022-08-09T09:36:02.488Z,57.00
2022-08-09T09:38:47.431Z,55.47
2022-08-09T09:41:22.895Z,54.82
2022-08-09T09:44:11.128Z,55.56
2022-08-09T09:46:42.124Z,55.12
2022-08-09T09:49:12.627Z,56.05
2022-08-09T09:51:40.510Z,55.66
2022-08-09T09:54:19.254Z,56.18
2022-08-09T09:56:53.349Z,56.15
2022-08-09T09:59:36.382Z,56.69
2022-08-09T10:02:03.042Z,57.08
2022-08-09T10:04:30.391Z,56.59
2022-08-09T10:06:58.793Z,54.45
2022-08-09T10:09:48.791Z,54.26
2022-08-09T10:12:28.667Z,54.52
2022-08-09T10:15:51.073Z,56.08
2022-08-09T10:18:12.862Z,52.24
2022-08-09T10:20:44.633Z,52.94
2022-08-09T10:23:20.324Z,52.77
2022-08-09T10:26:07.448Z,51.50
2022-08-09T10:28:35.849Z,51.21
2022-08-09T10:34:10.571Z,50.87
2022-08-09T10:36:36.817Z,51.60
2022-08-09T10:39:05.933Z,53.31
2022-08-09T10:41:42.955Z,52.00
2022-08-09T10:44:10.153Z,51.46
2022-08-09T10:46:55.270Z,51.93
2022-08-09T10:49:49.723Z,51.09
2022-08-09T10:52:44.821Z,50.70
2022-08-09T10:55:22.817Z,51.21
2022-08-09T10:57:51.721Z,50.53
2022-08-09T11:00:41.700Z,46.11
2022-08-09T11:03:49.765Z,44.64
2022-08-09T11:06:23.198Z,41.49
2022-08-09T11:08:53.439Z,41.24
2022-08-09T11:11:21.954Z,41.19
2022-08-09T11:14:08.787Z,40.85
2022-08-09T11:16:43.105Z,40.75
2022-08-09T11:19:13.794Z,37.24
2022-08-09T11:21:57.125Z,39.19
2022-08-09T11:24:52.239Z,38.53
2022-08-09T11:28:04.706Z,38.19
2022-08-09T11:30:33.229Z,37.39
2022-08-09T11:33:19.267Z,37.78
2022-08-09T11:36:06.238Z,37.63
2022-08-09T11:38:35.234Z,38.29
2022-08-09T11:41:12.846Z,38.77
2022-08-09T11:43:42.197Z,38.64
2022-08-09T11:46:09.577Z,39.70
2022-08-09T11:48:53.919Z,37.74
2022-08-09T11:53:00.606Z,38.51
2022-08-09T11:54:27.702Z,38.96
2022-08-09T11:57:18.292Z,37.55
2022-08-09T11:59:55.340Z,38.45
2022-08-09T12:02:36.868Z,38.31
2022-08-09T12:05:07.664Z,38.71
2022-08-09T12:07:44.691Z,38.09
2022-08-09T12:10:32.077Z,37.49
2022-08-09T12:13:03.469Z,38.61
2022-08-09T12:15:49.680Z,39.49
2022-08-09T12:18:26.219Z,40.94
2022-08-09T12:21:00.397Z,40.75
2022-08-09T12:23:58.790Z,39.34
2022-08-09T12:26:25.406Z,39.50
2022-08-09T12:29:11.816Z,39.98
2022-08-09T12:31:59.313Z,38.91
2022-08-09T12:34:42.782Z,38.92
2022-08-09T12:37:24.004Z,39.17
2022-08-09T12:39:59.803Z,40.28
2022-08-09T12:42:28.285Z,40.99
2022-08-09T12:44:56.965Z,41.51
2022-08-09T12:47:26.319Z,40.25
2022-08-09T12:50:11.835Z,38.66
2022-08-09T12:52:43.016Z,39.90
2022-08-09T12:56:16.128Z,40.44
2022-08-09T12:58:24.002Z,42.68
2022-08-09T13:00:51.412Z,42.42
2022-08-09T13:03:28.527Z,41.48
2022-08-09T13:06:23.864Z,40.85
2022-08-09T13:09:01.228Z,41.55
2022-08-09T13:11:31.950Z,41.83
2022-08-09T13:14:40.853Z,41.19
2022-08-09T13:16:51.747Z,40.40
2022-08-09T13:20:06.945Z,41.49
2022-08-09T13:22:35.898Z,40.59
2022-08-09T13:25:03.928Z,41.03
2022-08-09T13:27:39.669Z,41.60
2022-08-09T13:31:10.960Z,42.20
2022-08-09T13:33:02.497Z,43.14
2022-08-09T13:35:34.691Z,43.51
2022-08-09T13:38:32.827Z,42.75
2022-08-09T13:41:46.176Z,43.95
2022-08-09T13:43:49.888Z,43.83
2022-08-09T13:47:15.216Z,44.62
2022-08-09T13:49:03.470Z,44.53
2022-08-09T13:51:32.207Z,46.27
2022-08-09T13:53:58.910Z,46.19
2022-08-09T13:56:25.680Z,47.09
2022-08-09T13:58:53.538Z,48.11
2022-08-09T14:02:00.901Z,48.16
2022-08-09T14:04:11.345Z,47.19
2022-08-09T14:06:43.846Z,47.68
2022-08-09T14:09:13.401Z,48.28
2022-08-09T14:11:46.899Z,48.07
2022-08-09T14:14:23.421Z,47.13
2022-08-09T14:16:53.421Z,47.04
2022-08-09T14:19:20.782Z,46.04
2022-08-09T14:21:49.211Z,47.44
2022-08-09T14:24:22.444Z,47.93
2022-08-09T14:27:00.472Z,48.01
2022-08-09T14:30:19.322Z,48.25
2022-08-09T14:32:16.315Z,49.65
2022-08-09T14:34:43.250Z,49.58
2022-08-09T14:37:11.553Z,48.65
2022-08-09T14:39:45.645Z,48.84
2022-08-09T14:42:29.043Z,49.04
2022-08-09T14:45:00.799Z,46.92
2022-08-09T14:47:44.774Z,46.37
2022-08-09T14:50:16.244Z,48.41
2022-08-09T14:52:44.016Z,49.88
2022-08-09T14:55:20.485Z,51.16
2022-08-09T14:57:48.943Z,48.83
2022-08-09T15:00:16.139Z,48.51
2022-08-09T15:02:42.852Z,48.30
2022-08-09T15:05:16.924Z,49.14
2022-08-09T15:07:45.575Z,49.43
2022-08-09T15:10:24.966Z,50.63
2022-08-09T15:12:52.667Z,50.77
2022-08-09T15:15:20.328Z,51.56
2022-08-09T15:17:52.512Z,52.71
2022-08-09T15:22:01.803Z,51.94
2022-08-09T15:24:00.920Z,50.96
2022-08-09T15:25:54.062Z,51.07
2022-08-09T15:28:27.293Z,50.99
2022-08-09T15:31:03.036Z,52.21
2022-08-09T15:34:18.059Z,51.85
2022-08-09T15:36:28.408Z,52.50
2022-08-09T15:38:56.513Z,52.02
2022-08-09T15:41:31.158Z,51.87
2022-08-09T15:44:00.048Z,52.61
2022-08-09T15:46:32.183Z,50.94
2022-08-09T15:49:22.809Z,54.86
2022-08-09T15:52:03.423Z,55.83
2022-08-09T15:54:44.800Z,55.35
2022-08-09T15:57:19.292Z,55.16
2022-08-09T16:00:01.490Z,53.05
2022-08-09T16:02:28.146Z,53.98
2022-08-09T16:04:55.756Z,54.28
2022-08-09T16:07:22.695Z,55.20
2022-08-09T16:10:04.011Z,55.27
2022-08-09T16:12:32.140Z,53.88
2022-08-09T16:14:59.152Z,54.10
2022-08-09T16:17:28.635Z,51.46
2022-08-09T16:20:04.747Z,51.49
2022-08-09T16:22:36.723Z,53.43
2022-08-09T16:25:09.836Z,55.53
2022-08-09T16:27:37.722Z,46.70
2022-08-09T16:30:08.489Z,48.06
2022-08-09T16:33:00.355Z,54.92
2022-08-09T16:35:56.034Z,48.06
2022-08-09T16:38:15.103Z,54.04
2022-08-09T16:40:44.880Z,50.35
2022-08-09T16:43:12.402Z,54.11
2022-08-09T16:45:44.324Z,49.66
2022-08-09T16:48:38.021Z,54.39
2022-08-09T16:51:07.554Z,53.82
2022-08-09T16:53:36.203Z,54.88
2022-08-09T16:56:09.366Z,54.99
2022-08-09T16:58:37.298Z,52.65
2022-08-09T17:01:07.163Z,54.76
2022-08-09T17:03:33.827Z,52.77
2022-08-09T17:06:07.433Z,54.62
2022-08-09T17:09:04.902Z,52.42
2022-08-09T17:11:41.495Z,52.33
2022-08-09T17:14:25.857Z,52.19
2022-08-09T17:16:55.332Z,51.81
2022-08-09T17:19:21.991Z,53.63
2022-08-09T17:21:54.426Z,53.26
2022-08-09T17:24:28.425Z,53.33
2022-08-09T17:26:58.197Z,52.42
2022-08-09T17:29:25.154Z,52.21
2022-08-09T17:32:00.333Z,54.88
2022-08-09T17:35:01.585Z,52.83
2022-08-09T17:37:19.611Z,55.96
2022-08-09T17:39:52.531Z,55.48
2022-08-09T17:42:41.169Z,55.12
2022-08-09T17:45:23.701Z,54.59
2022-08-09T17:47:55.830Z,55.07
2022-08-09T17:50:36.913Z,55.20
2022-08-09T17:53:19.215Z,55.07
2022-08-09T17:55:49.122Z,55.14
2022-08-09T17:58:19.149Z,54.13
2022-08-09T18:00:46.412Z,54.25
2022-08-09T18:03:13.619Z,54.20
2022-08-09T18:05:43.971Z,54.42
2022-08-09T18:08:11.169Z,54.62
2022-08-09T18:10:40.136Z,52.79
2022-08-09T18:13:40.067Z,52.90
2022-08-09T18:16:07.766Z,53.11
2022-08-09T18:18:43.347Z,53.41
2022-08-09T18:21:22.870Z,52.88
2022-08-09T18:24:12.524Z,52.90
2022-08-09T18:26:38.368Z,52.70
2022-08-09T18:30:35.188Z,53.16
2022-08-09T18:32:01.055Z,52.85
2022-08-09T18:34:31.813Z,52.55
2022-08-09T18:36:58.848Z,53.06
2022-08-09T18:39:32.295Z,54.99
2022-08-09T18:42:01.224Z,56.83
2022-08-09T18:44:27.977Z,57.17
2022-08-09T18:47:07.465Z,56.85
2022-08-09T18:49:42.920Z,58.01
2022-08-09T18:52:11.806Z,58.83
2022-08-09T18:54:38.922Z,59.70
2022-08-09T18:57:08.828Z,60.94
2022-08-09T18:59:37.363Z,60.77
2022-08-09T19:02:16.314Z,60.33
2022-08-09T19:04:47.535Z,60.43
2022-08-09T19:07:29.741Z,60.93
2022-08-09T19:10:14.279Z,60.81
2022-08-09T19:12:50.315Z,59.03
2022-08-09T19:15:25.804Z,61.51
2022-08-09T19:17:56.574Z,61.62
2022-08-09T19:20:25.406Z,60.25
2022-08-09T19:22:54.591Z,60.49
2022-08-09T19:25:41.855Z,60.48
2022-08-09T19:28:08.872Z,61.22
2022-08-09T19:30:40.716Z,61.19
2022-08-09T19:33:19.071Z,60.87
2022-08-09T19:35:57.560Z,59.95
2022-08-09T19:38:25.390Z,59.22
2022-08-09T19:40:52.936Z,58.17
2022-08-09T19:44:00.859Z,57.43
2022-08-09T19:46:14.973Z,56.33
2022-08-09T19:49:00.344Z,56.35
2022-08-09T19:51:30.921Z,55.70
2022-08-09T19:53:58.660Z,55.82
2022-08-09T19:56:29.321Z,55.04
2022-08-09T19:59:39.548Z,55.91
2022-08-09T20:02:03.272Z,54.37
2022-08-09T20:04:37.572Z,54.16
2022-08-09T20:07:20.921Z,54.14
2022-08-09T20:09:48.110Z,53.50
2022-08-09T20:12:31.784Z,52.90
2022-08-09T20:15:04.652Z,52.87
2022-08-09T20:17:48.356Z,53.04
2022-08-09T20:20:15.567Z,53.09
2022-08-09T20:22:46.460Z,53.14
2022-08-09T20:25:13.322Z,53.59
2022-08-09T20:27:49.800Z,54.71
2022-08-09T20:30:18.104Z,54.65
2022-08-09T20:32:52.294Z,54.54
2022-08-09T20:35:19.705Z,54.00
2022-08-09T20:38:22.043Z,54.73
2022-08-09T20:40:33.271Z,54.99
2022-08-09T20:43:18.123Z,54.97
2022-08-09T20:46:01.766Z,55.67
2022-08-09T20:48:36.248Z,55.54
2022-08-09T20:51:03.815Z,55.98
2022-08-09T20:53:37.287Z,56.35
2022-08-09T20:56:20.044Z,56.84
2022-08-09T20:58:49.051Z,56.94
2022-08-09T21:01:34.154Z,56.14
2022-08-09T21:04:08.404Z,56.59
2022-08-09T21:06:51.109Z,56.94
2022-08-09T21:09:24.942Z,57.04
2022-08-09T21:14:34.772Z,57.69
2022-08-09T21:18:23.814Z,58.86
2022-08-09T21:20:19.433Z,57.94
2022-08-09T21:22:42.641Z,58.84
2022-08-09T21:25:37.736Z,59.75
2022-08-09T21:28:05.080Z,59.29
2022-08-09T21:30:34.298Z,58.23
2022-08-09T21:33:05.958Z,58.62
2022-08-09T21:35:39.462Z,58.89
2022-08-09T21:38:18.148Z,58.72
2022-08-09T21:40:50.617Z,59.51
2022-08-09T21:43:21.673Z,59.19
2022-08-09T21:46:04.381Z,59.23
2022-08-09T21:48:31.621Z,59.43
2022-08-09T21:50:58.874Z,59.63
2022-08-09T21:53:40.702Z,59.59
2022-08-09T21:56:14.979Z,58.86
2022-08-09T21:58:54.496Z,58.94
2022-08-09T22:01:44.911Z,59.24
2022-08-09T22:04:08.419Z,58.65
2022-08-09T22:06:36.719Z,58.66
2022-08-09T22:09:03.758Z,59.51
2022-08-09T22:12:06.814Z,59.14
2022-08-09T22:14:17.011Z,60.09
2022-08-09T22:16:43.769Z,60.27
2022-08-09T22:19:58.017Z,59.29
2022-08-09T22:21:57.378Z,60.49
2022-08-09T22:24:25.105Z,59.62
2022-08-09T22:26:52.299Z,59.96
2022-08-09T22:29:19.623Z,60.75
2022-08-09T22:31:56.289Z,60.60
2022-08-09T22:34:25.691Z,60.73
2022-08-09T22:36:52.755Z,60.72
2022-08-09T22:39:47.204Z,60.44
2022-08-09T22:42:21.491Z,60.75
2022-08-09T22:45:02.452Z,59.75
2022-08-09T22:48:13.369Z,59.31
2022-08-09T22:50:27.166Z,58.99
2022-08-09T22:52:58.045Z,59.23
2022-08-09T22:55:27.906Z,59.74
2022-08-09T22:58:06.855Z,59.08
2022-08-09T23:00:35.570Z,57.77
2022-08-09T23:03:04.146Z,57.32
2022-08-09T23:05:39.541Z,56.82
2022-08-09T23:08:31.265Z,44.05
2022-08-09T23:10:58.098Z,43.22
2022-08-09T23:13:24.818Z,39.94
2022-08-09T23:16:03.147Z,39.83
2022-08-09T23:18:30.548Z,39.97
2022-08-09T23:20:57.222Z,39.36
2022-08-09T23:23:23.952Z,39.11
2022-08-09T23:25:50.652Z,37.96
2022-08-09T23:28:17.263Z,38.57
2022-08-09T23:30:51.217Z,38.44
2022-08-09T23:33:19.432Z,37.87
2022-08-09T23:36:05.188Z,37.86
2022-08-09T23:38:32.746Z,37.55
2022-08-09T23:40:59.370Z,37.85
2022-08-09T23:43:26.053Z,38.27
2022-08-09T23:45:52.755Z,38.60
2022-08-09T23:48:19.904Z,38.24
2022-08-09T23:50:46.646Z,38.37
2022-08-09T23:53:13.492Z,38.50
2022-08-09T23:55:47.289Z,38.30
2022-08-09T23:58:24.282Z,38.60
